Time;durP1;ratioP1;P1;durP2;ratioP2;P2;SDS_P1;SDS_P2;PMS_P1;PMS_P2;Temp;Humidity;BMP_temperature;BMP_pressure;BME280_temperature;BME280_humidity;BME280_pressure;Samples;Min_cycle;Max_cycle;Signal;HPM_P1;HPM_P2
2022/08/22 00:02:02;;;;;;;7.93;5.50;;;;;;;14.61;100.00;101671.31;5013234;28;20433;-51
2022/08/22 00:04:35;;;;;;;7.90;5.50;;;;;;;14.58;100.00;101679.78;5013074;28;20450;-52
2022/08/22 00:07:12;;;;;;;7.37;6.00;;;;;;;14.55;100.00;101672.13;5013091;28;20449;-52
2022/08/22 00:09:48;;;;;;;8.87;5.37;;;;;;;14.51;100.00;101671.72;5012867;28;20452;-51
2022/08/22 00:12:21;;;;;;;7.90;6.17;;;;;;;14.49;100.00;101678.28;5012739;28;20429;-54
2022/08/22 00:14:58;;;;;;;5.90;5.50;;;;;;;14.48;100.00;101679.34;5012890;28;20444;-51
2022/08/22 00:17:35;;;;;;;8.67;6.50;;;;;;;14.47;100.00;101688.41;5012950;28;20503;-51
2022/08/22 00:20:09;;;;;;;6.57;5.90;;;;;;;14.46;100.00;101676.00;5012122;28;20838;-54
2022/08/22 00:22:46;;;;;;;10.03;6.60;;;;;;;14.40;100.00;101675.78;5012606;28;20455;-53
2022/08/22 00:25:32;;;;;;;7.23;5.93;;;;;;;14.35;100.00;101674.72;5012638;28;20440;-49
2022/08/22 00:28:05;;;;;;;7.87;7.13;;;;;;;14.30;100.00;101677.97;5012781;28;20445;-52
2022/08/22 00:30:42;;;;;;;11.50;7.10;;;;;;;14.23;100.00;101677.09;5012389;28;20468;-51
2022/08/22 00:33:21;;;;;;;13.07;8.00;;;;;;;14.19;100.00;101681.19;5012454;28;20439;-48
2022/08/22 00:35:59;;;;;;;8.07;6.50;;;;;;;14.19;100.00;101683.88;5012672;28;20483;-49
2022/08/22 00:38:33;;;;;;;7.07;6.43;;;;;;;14.16;100.00;101681.59;5012489;28;20428;-49
2022/08/22 00:41:07;;;;;;;7.27;6.63;;;;;;;14.13;100.00;101671.25;5012088;28;20465;-54
2022/08/22 00:44:17;;;;;;;9.43;6.33;;;;;;;14.11;100.00;101675.16;5011231;28;20464;-53
2022/08/22 00:47:13;;;;;;;10.10;7.50;;;;;;;14.06;100.00;101673.09;5011552;28;20962;-53
2022/08/22 00:50:14;;;;;;;8.23;7.40;;;;;;;14.05;100.00;101675.94;5012127;28;20468;-51
2022/08/22 00:53:02;;;;;;;10.30;6.83;;;;;;;14.01;100.00;101682.75;4999623;28;20949;-53
2022/08/22 00:55:43;;;;;;;9.00;7.10;;;;;;;13.97;100.00;101676.09;5012311;28;20441;-50
2022/08/22 00:58:44;;;;;;;16.30;7.50;;;;;;;13.94;100.00;101693.44;5012280;28;20435;-52
2022/08/22 01:01:16;;;;;;;8.10;7.40;;;;;;;13.91;100.00;101688.44;5012204;28;20898;-51
2022/08/22 01:04:02;;;;;;;9.30;8.27;;;;;;;13.89;100.00;101687.78;5012091;28;20791;-50
2022/08/22 01:06:42;;;;;;;9.27;6.50;;;;;;;13.87;100.00;101687.19;5012074;28;20449;-49
2022/08/22 01:09:24;;;;;;;7.80;7.10;;;;;;;13.86;100.00;101685.50;5011610;28;20467;-48
2022/08/22 01:12:14;;;;;;;7.10;6.60;;;;;;;13.80;100.00;101687.13;5012270;28;20434;-54
2022/08/22 01:14:49;;;;;;;6.97;6.20;;;;;;;13.75;100.00;101684.19;5012150;28;20783;-48
2022/08/22 01:17:49;;;;;;;7.80;6.43;;;;;;;13.73;100.00;101696.97;5011977;28;20480;-52
2022/08/22 01:20:50;;;;;;;8.00;7.30;;;;;;;13.72;100.00;101689.13;4987974;28;20464;-51
2022/08/22 01:23:55;;;;;;;8.07;7.27;;;;;;;13.71;100.00;101690.97;5011910;28;20432;-51
2022/08/22 01:26:59;;;;;;;7.63;7.10;;;;;;;13.69;100.00;101686.81;5011927;28;20463;-50
2022/08/22 01:30:01;;;;;;;9.47;6.87;;;;;;;13.69;100.00;101695.69;5006903;28;20469;-51
2022/08/22 01:33:17;;;;;;;8.37;7.20;;;;;;;13.67;100.00;101699.59;5011886;28;20825;-53
2022/08/22 01:36:03;;;;;;;6.90;6.30;;;;;;;13.65;100.00;101701.66;5009071;28;20469;-52
2022/08/22 01:38:52;;;;;;;7.03;6.53;;;;;;;13.63;100.00;101693.78;5011881;28;20432;-51
2022/08/22 01:41:58;;;;;;;9.43;7.70;;;;;;;13.58;100.00;101696.22;5011686;28;20441;-53
2022/08/22 01:44:46;;;;;;;7.00;6.40;;;;;;;13.56;100.00;101694.78;5011628;28;20437;-50
2022/08/22 01:47:18;;;;;;;8.30;7.60;;;;;;;13.50;100.00;101696.34;5011751;28;20464;-51
2022/08/22 01:49:52;;;;;;;8.83;8.03;;;;;;;13.47;100.00;101694.06;5011599;28;20478;-50
2022/08/22 01:52:37;;;;;;;12.57;8.40;;;;;;;13.48;100.00;101700.25;5011495;28;20846;-52
2022/08/22 01:55:10;;;;;;;7.60;6.90;;;;;;;13.49;100.00;101700.06;5011660;28;20794;-51
2022/08/22 01:57:51;;;;;;;7.33;6.70;;;;;;;13.51;100.00;101698.00;5013561;28;20485;-48
2022/08/22 02:00:21;;;;;;;10.17;7.47;;;;;;;13.51;100.00;101697.19;5015144;28;20522;-53
2022/08/22 02:03:12;;;;;;;7.77;7.00;;;;;;;13.49;100.00;101700.06;5015109;28;20571;-51
2022/08/22 02:05:49;;;;;;;10.60;7.03;;;;;;;13.47;100.00;101701.28;5015564;28;20564;-52
2022/08/22 02:08:30;;;;;;;8.80;7.40;;;;;;;13.45;100.00;101698.78;5015421;28;20439;-48
2022/08/22 02:11:04;;;;;;;11.10;7.40;;;;;;;13.43;100.00;101692.78;5014753;28;20833;-51
2022/08/22 02:13:45;;;;;;;12.90;7.33;;;;;;;13.43;100.00;101698.16;5014882;28;20424;-49
2022/08/22 02:16:19;;;;;;;10.90;7.83;;;;;;;13.44;100.00;101704.34;5015090;28;20445;-50
2022/08/22 02:19:03;;;;;;;7.70;6.33;;;;;;;13.41;100.00;101700.19;5014796;28;20446;-52
2022/08/22 02:21:42;;;;;;;8.60;8.00;;;;;;;13.39;100.00;101702.22;5015242;28;20910;-54
2022/08/22 02:24:28;;;;;;;11.57;8.03;;;;;;;13.36;100.00;101702.59;5014745;28;20440;-49
2022/08/22 02:27:12;;;;;;;10.50;7.60;;;;;;;13.31;100.00;101697.00;5015024;28;20452;-52
2022/08/22 02:29:48;;;;;;;8.93;8.03;;;;;;;13.29;100.00;101694.50;5014640;28;20475;-54
2022/08/22 02:32:22;;;;;;;7.40;6.70;;;;;;;13.24;100.00;101693.41;5014620;28;20432;-51
2022/08/22 02:35:00;;;;;;;8.77;7.97;;;;;;;13.21;100.00;101696.47;5015216;28;20486;-54
2022/08/22 02:37:36;;;;;;;9.80;7.20;;;;;;;13.19;100.00;101701.22;5014088;28;20995;-51
2022/08/22 02:40:14;;;;;;;7.53;6.93;;;;;;;13.17;100.00;101692.53;5014386;28;20834;-54
2022/08/22 02:42:48;;;;;;;13.03;7.30;;;;;;;13.17;100.00;101701.38;5014591;28;20433;-54
2022/08/22 02:45:24;;;;;;;8.27;7.60;;;;;;;13.19;100.00;101702.03;5014718;28;20807;-51
2022/08/22 02:48:01;;;;;;;7.53;6.83;;;;;;;13.20;100.00;101698.31;5014672;28;20436;-50
2022/08/22 02:50:37;;;;;;;8.07;7.13;;;;;;;13.20;100.00;101702.88;5014271;28;20464;-53
2022/08/22 02:53:13;;;;;;;14.90;8.27;;;;;;;13.20;100.00;101701.00;5013848;28;20428;-53
2022/08/22 02:55:50;;;;;;;8.87;7.30;;;;;;;13.20;100.00;101710.91;4995002;28;20816;-47
2022/08/22 02:58:27;;;;;;;10.80;7.17;;;;;;;13.20;100.00;101713.59;4994973;28;20485;-49
2022/08/22 03:01:16;;;;;;;9.43;7.93;;;;;;;13.20;100.00;101709.03;4994261;28;20477;-49
2022/08/22 03:03:47;;;;;;;11.30;9.17;;;;;;;13.21;100.00;101709.88;4994394;28;20480;-53
2022/08/22 03:06:36;;;;;;;10.37;9.50;;;;;;;13.23;100.00;101711.34;4994792;28;20450;-52
2022/08/22 03:09:21;;;;;;;14.27;9.00;;;;;;;13.23;100.00;101719.38;4992918;28;20462;-51
2022/08/22 03:12:02;;;;;;;10.87;9.03;;;;;;;13.21;100.00;101712.56;4994576;28;20436;-46
2022/08/22 03:14:38;;;;;;;15.73;9.47;;;;;;;13.17;100.00;101711.28;4994607;28;20811;-52
2022/08/22 03:17:11;;;;;;;14.07;8.80;;;;;;;13.13;100.00;101716.19;4994392;28;20454;-48
2022/08/22 03:19:51;;;;;;;9.87;8.97;;;;;;;13.12;100.00;101708.34;4993449;28;20458;-52
2022/08/22 03:22:26;;;;;;;10.80;9.70;;;;;;;13.08;100.00;101709.75;4994016;28;21102;-55
2022/08/22 03:25:02;;;;;;;12.70;10.30;;;;;;;13.01;100.00;101716.84;4994749;28;20437;-50
2022/08/22 03:27:40;;;;;;;9.33;8.30;;;;;;;12.99;100.00;101719.69;4994371;28;20450;-49
2022/08/22 03:30:15;;;;;;;10.30;9.30;;;;;;;12.98;100.00;101722.56;4994074;28;20462;-51
2022/08/22 03:32:49;;;;;;;11.33;9.77;;;;;;;12.95;100.00;101720.25;4993842;28;20430;-54
2022/08/22 03:35:28;;;;;;;9.87;8.87;;;;;;;12.94;100.00;101713.25;4994039;28;20796;-48
2022/08/22 03:38:11;;;;;;;11.93;9.20;;;;;;;12.90;100.00;101723.53;4993959;28;20473;-50
2022/08/22 03:40:52;;;;;;;13.67;9.40;;;;;;;12.90;100.00;101717.34;4993566;28;20472;-47
2022/08/22 03:43:57;;;;;;;11.97;9.27;;;;;;;12.89;100.00;101721.00;4993741;28;20445;-51
2022/08/22 03:46:51;;;;;;;9.20;8.27;;;;;;;12.86;100.00;101711.53;4993860;28;20461;-52
2022/08/22 03:49:57;;;;;;;9.83;8.90;;;;;;;12.87;100.00;101721.22;4985846;28;20991;-52
2022/08/22 03:53:07;;;;;;;10.03;9.17;;;;;;;12.84;100.00;101726.94;5005328;28;20465;-48
2022/08/22 03:56:24;;;;;;;10.60;9.73;;;;;;;12.83;100.00;101717.25;4993556;28;20462;-52
2022/08/22 03:59:27;;;;;;;15.93;9.10;;;;;;;12.81;100.00;101713.09;4993340;28;20473;-54
2022/08/22 04:02:16;;;;;;;9.60;8.90;;;;;;;12.80;100.00;101727.50;4978150;28;20449;-50
2022/08/22 04:05:32;;;;;;;10.50;9.40;;;;;;;12.78;100.00;101723.16;4993883;28;20430;-49
2022/08/22 04:08:28;;;;;;;10.53;9.40;;;;;;;12.75;100.00;101720.84;4993829;28;20538;-49
2022/08/22 04:11:20;;;;;;;11.33;10.43;;;;;;;12.72;100.00;101723.88;4993093;28;20504;-52
2022/08/22 04:14:27;;;;;;;11.87;10.70;;;;;;;12.71;100.00;101724.09;4993562;28;20422;-55
2022/08/22 04:17:14;;;;;;;11.20;10.30;;;;;;;12.72;100.00;101725.75;4993499;28;20457;-49
2022/08/22 04:20:00;;;;;;;10.13;9.43;;;;;;;12.74;100.00;101727.22;4992476;28;20474;-53
2022/08/22 04:22:57;;;;;;;12.23;11.23;;;;;;;12.73;100.00;101736.28;4993529;28;20754;-49
2022/08/22 04:25:30;;;;;;;10.63;9.63;;;;;;;12.76;100.00;101729.72;4993029;28;20442;-51
2022/08/22 04:28:05;;;;;;;9.53;8.83;;;;;;;12.77;100.00;101737.56;4993454;28;20828;-51
2022/08/22 04:30:40;;;;;;;9.20;8.50;;;;;;;12.83;100.00;101740.50;4992648;28;20999;-51
2022/08/22 04:33:16;;;;;;;12.83;9.60;;;;;;;12.89;100.00;101737.91;4993099;28;20899;-54
2022/08/22 04:35:52;;;;;;;10.53;9.73;;;;;;;12.96;100.00;101740.69;4993043;28;20450;-55
2022/08/22 04:38:27;;;;;;;10.97;9.90;;;;;;;13.02;100.00;101746.09;4993327;28;20465;-56
2022/08/22 04:41:01;;;;;;;9.73;9.13;;;;;;;13.13;100.00;101747.50;4992600;28;20476;-53
2022/08/22 04:43:36;;;;;;;11.43;10.43;;;;;;;13.18;100.00;101761.13;4993134;28;20414;-54
2022/08/22 04:46:11;;;;;;;12.33;11.20;;;;;;;13.24;100.00;101757.72;4992766;28;20466;-53
2022/08/22 04:48:44;;;;;;;12.63;10.57;;;;;;;13.30;100.00;101756.94;4992837;28;20414;-55
2022/08/22 04:51:20;;;;;;;14.20;9.80;;;;;;;13.36;100.00;101756.19;4994493;28;20418;-54
2022/08/22 04:54:25;;;;;;;11.40;10.23;;;;;;;13.47;100.00;101755.69;5012373;28;20433;-55
2022/08/22 04:57:16;;;;;;;11.57;10.47;;;;;;;13.60;100.00;101760.34;5012565;28;20817;-51
2022/08/22 04:59:44;;;;;;;10.97;10.17;;;;;;;13.73;100.00;101766.69;5011909;28;20476;-55
2022/08/22 05:02:22;;;;;;;9.60;8.80;;;;;;;14.38;100.00;101765.56;5012387;28;20437;-54
2022/08/22 05:04:57;;;;;;;11.00;8.17;;;;;;;15.34;100.00;101762.69;5012473;28;20797;-53
2022/08/22 05:07:30;;;;;;;9.27;8.17;;;;;;;16.47;100.00;101764.41;5012165;28;20448;-53
2022/08/22 05:10:08;;;;;;;8.03;7.37;;;;;;;17.49;100.00;101753.63;5011725;28;20547;-53
2022/08/22 05:12:43;;;;;;;7.63;6.93;;;;;;;18.52;99.00;101762.97;5012205;28;20413;-56
2022/08/22 05:15:17;;;;;;;7.20;6.60;;;;;;;19.45;93.15;101755.38;5012062;28;20433;-54
2022/08/22 05:17:55;;;;;;;6.60;6.20;;;;;;;20.32;85.47;101754.59;5012224;28;20438;-51
2022/08/22 05:20:27;;;;;;;6.73;6.27;;;;;;;21.20;83.16;101757.03;5011602;28;20492;-52
2022/08/22 05:22:59;;;;;;;6.27;5.87;;;;;;;21.92;77.00;101758.09;5011932;28;20436;-55
2022/08/22 05:25:29;;;;;;;5.57;5.27;;;;;;;22.59;71.88;101751.47;5012059;28;20429;-50
2022/08/22 05:28:07;;;;;;;6.47;6.00;;;;;;;23.07;68.00;101758.06;5012097;28;20976;-55
2022/08/22 05:30:35;;;;;;;6.07;5.70;;;;;;;23.68;65.23;101760.34;5011663;28;20474;-54
2022/08/22 05:33:13;;;;;;;6.73;6.23;;;;;;;24.22;63.61;101757.56;5014828;28;20790;-54
2022/08/22 05:35:47;;;;;;;5.00;4.70;;;;;;;24.84;62.02;101760.38;5016400;28;20460;-52
2022/08/22 05:38:23;;;;;;;4.90;4.50;;;;;;;25.53;60.64;101760.88;5015923;28;20527;-56
2022/08/22 05:40:57;;;;;;;6.63;4.63;;;;;;;26.17;59.31;101760.31;5015670;28;20460;-54
2022/08/22 05:43:26;;;;;;;4.57;4.37;;;;;;;26.85;58.71;101754.13;5016228;28;20418;-55
2022/08/22 05:45:57;;;;;;;7.33;6.83;;;;;;;27.41;57.88;101757.41;5015675;28;20468;-49
2022/08/22 05:48:35;;;;;;;5.70;5.30;;;;;;;27.97;56.09;101763.28;5016107;28;20739;-54
2022/08/22 05:51:13;;;;;;;9.10;8.33;;;;;;;28.41;55.33;101765.88;5015642;28;20756;-54
2022/08/22 05:53:46;;;;;;;8.67;7.77;;;;;;;28.86;53.29;101770.03;5015793;28;20436;-54
2022/08/22 05:56:18;;;;;;;8.33;7.33;;;;;;;29.10;51.84;101765.34;5015508;28;20451;-55
2022/08/22 05:58:51;;;;;;;5.93;5.43;;;;;;;29.39;51.72;101772.66;5015275;28;20461;-55
2022/08/22 06:01:26;;;;;;;5.63;5.23;;;;;;;29.86;50.31;101766.97;5015860;28;20178;-50
2022/08/22 06:04:01;;;;;;;6.67;5.80;;;;;;;30.23;48.51;101776.25;5015440;28;20189;-54
2022/08/22 06:06:32;;;;;;;5.93;5.33;;;;;;;30.06;48.33;101776.81;5015343;28;20216;-54
2022/08/22 06:09:05;;;;;;;5.20;4.80;;;;;;;30.16;47.16;101782.97;5015028;28;20240;-55
2022/08/22 06:11:39;;;;;;;6.23;5.70;;;;;;;30.28;45.17;101778.88;5015684;28;20639;-54
2022/08/22 06:14:22;;;;;;;6.30;5.73;;;;;;;30.53;46.25;101778.41;5015380;28;20198;-55
2022/08/22 06:16:58;;;;;;;7.23;6.53;;;;;;;29.71;42.14;101780.94;5015584;28;20260;-50
2022/08/22 06:19:28;;;;;;;7.57;6.77;;;;;;;29.09;44.82;101782.91;5014991;28;20236;-51
2022/08/22 06:21:57;;;;;;;6.00;5.50;;;;;;;29.23;48.04;101788.53;5015531;28;20197;-52
2022/08/22 06:24:27;;;;;;;9.07;6.90;;;;;;;29.08;47.88;101786.78;5015312;28;20288;-55
2022/08/22 06:27:01;;;;;;;8.03;7.43;;;;;;;28.82;44.26;101788.19;5015290;28;20218;-55
2022/08/22 06:29:37;;;;;;;9.90;7.30;;;;;;;28.45;44.95;101790.81;5014690;28;20587;-55
2022/08/22 06:32:12;;;;;;;7.77;7.00;;;;;;;28.52;48.48;101791.28;5014867;28;20559;-52
2022/08/22 06:34:45;;;;;;;8.03;7.50;;;;;;;28.60;46.48;101793.41;5015184;28;20554;-52
2022/08/22 06:37:23;;;;;;;6.93;6.37;;;;;;;28.78;48.53;101795.41;5015117;28;20582;-54
2022/08/22 06:39:53;;;;;;;7.03;6.33;;;;;;;28.64;46.57;101791.75;5014453;28;20718;-55
2022/08/22 06:42:24;;;;;;;6.67;6.00;;;;;;;29.16;47.15;101792.72;5014743;28;20433;-55
2022/08/22 06:44:57;;;;;;;5.10;4.60;;;;;;;28.83;42.83;101792.59;5014751;28;20659;-53
2022/08/22 06:47:27;;;;;;;6.07;4.13;;;;;;;28.24;45.37;101789.38;5014655;28;20225;-51
2022/08/22 06:50:01;;;;;;;6.93;4.40;;;;;;;28.15;45.33;101780.16;5014388;28;20228;-51
2022/08/22 06:52:34;;;;;;;6.83;3.47;;;;;;;28.31;45.49;101787.13;5014800;28;20186;-54
2022/08/22 06:55:06;;;;;;;4.10;3.73;;;;;;;28.75;41.93;101789.69;5014448;28;20212;-49
2022/08/22 06:57:37;;;;;;;3.90;3.60;;;;;;;28.33;43.17;101791.22;5014627;28;20449;-55
2022/08/22 07:00:09;;;;;;;3.80;3.53;;;;;;;28.33;43.13;101798.63;5013976;28;20230;-52
2022/08/22 07:02:42;;;;;;;3.67;3.37;;;;;;;27.91;44.63;101805.56;5014110;28;20185;-55
2022/08/22 07:05:16;;;;;;;4.17;3.37;;;;;;;28.02;46.34;101795.31;5014138;28;20197;-55
2022/08/22 07:07:44;;;;;;;4.77;2.93;;;;;;;27.98;44.43;101806.06;5014082;28;20193;-55
2022/08/22 07:10:14;;;;;;;6.47;3.73;;;;;;;28.15;47.61;101810.31;5014100;28;20217;-55
2022/08/22 07:12:46;;;;;;;5.40;3.47;;;;;;;28.29;44.07;101811.25;5014398;28;20511;-55
2022/08/22 07:15:31;;;;;;;3.40;3.10;;;;;;;28.51;45.97;101811.59;5014515;28;20185;-52
2022/08/22 07:18:03;;;;;;;5.70;3.53;;;;;;;28.79;44.84;101815.44;5014225;28;20188;-51
2022/08/22 07:20:37;;;;;;;4.70;3.30;;;;;;;28.74;44.14;101816.31;5013634;28;20717;-50
2022/08/22 07:23:08;;;;;;;4.20;3.33;;;;;;;28.20;42.51;101813.00;5013971;28;20204;-53
2022/08/22 07:25:50;;;;;;;3.90;3.43;;;;;;;28.00;43.84;101808.50;5013896;28;20714;-53
2022/08/22 07:28:28;;;;;;;4.07;3.70;;;;;;;27.81;44.35;101813.03;5014088;28;20208;-54
2022/08/22 07:31:15;;;;;;;6.67;3.80;;;;;;;28.06;42.00;101809.28;5013653;28;20218;-52
2022/08/22 07:33:48;;;;;;;4.30;3.90;;;;;;;27.36;43.69;101817.66;5013681;28;20197;-54
2022/08/22 07:36:22;;;;;;;6.33;3.90;;;;;;;27.02;43.52;101814.03;5013859;28;20453;-50
2022/08/22 07:39:04;;;;;;;8.00;4.07;;;;;;;26.54;46.69;101811.94;5013442;28;20232;-52
2022/08/22 07:41:51;;;;;;;6.70;4.80;;;;;;;25.77;46.60;101821.28;5013874;28;20190;-55
2022/08/22 07:44:22;;;;;;;9.17;4.47;;;;;;;25.42;48.45;101821.97;5013572;28;20443;-53
2022/08/22 07:46:57;;;;;;;4.73;4.20;;;;;;;25.18;48.73;101818.91;5013558;28;20499;-55
2022/08/22 07:49:29;;;;;;;4.00;3.67;;;;;;;24.51;49.73;101816.09;5013403;28;20467;-55
2022/08/22 07:52:03;;;;;;;3.90;3.60;;;;;;;24.54;49.89;101822.91;5013624;28;20780;-56
2022/08/22 07:54:39;;;;;;;4.33;3.93;;;;;;;24.74;49.92;101823.03;5012654;28;20440;-51
2022/08/22 07:57:11;;;;;;;5.37;3.70;;;;;;;24.67;50.39;101828.72;5013478;28;20454;-55
2022/08/22 07:59:45;;;;;;;6.10;4.20;;;;;;;24.56;49.24;101821.56;5012901;28;20845;-54
2022/08/22 08:02:15;;;;;;;5.73;4.40;;;;;;;24.00;50.13;101819.47;5013455;28;20420;-56
2022/08/22 08:04:44;;;;;;;5.43;3.50;;;;;;;24.39;48.49;101814.63;5013151;28;20946;-55
2022/08/22 08:07:16;;;;;;;6.37;3.67;;;;;;;24.05;49.11;101812.16;5013032;28;20456;-55
2022/08/22 08:09:49;;;;;;;5.23;3.43;;;;;;;23.98;49.98;101816.22;5012906;28;20460;-53
2022/08/22 08:12:20;;;;;;;4.30;3.90;;;;;;;23.88;49.49;101821.56;5012832;28;20922;-54
2022/08/22 08:14:55;;;;;;;4.73;3.40;;;;;;;24.05;48.22;101827.69;5013047;28;20443;-47
2022/08/22 08:17:25;;;;;;;4.20;3.80;;;;;;;24.07;47.26;101823.63;5012933;28;20448;-55
2022/08/22 08:20:03;;;;;;;3.93;3.50;;;;;;;24.19;46.82;101818.06;5012713;28;20503;-53
2022/08/22 08:22:33;;;;;;;9.73;3.37;;;;;;;23.95;44.67;101820.28;5012804;28;20763;-55
2022/08/22 08:25:02;;;;;;;3.90;2.70;;;;;;;23.85;45.14;101817.44;5013341;28;20437;-50
2022/08/22 08:30:23;;;;;;;3.57;3.27;;;;;;;24.39;42.98;101822.81;5012527;28;20460;-54
2022/08/22 08:32:53;;;;;;;3.13;2.83;;;;;;;24.27;43.61;101816.72;5012693;28;20433;-51
2022/08/22 08:35:46;;;;;;;6.10;3.37;;;;;;;24.15;44.80;101811.47;5013088;28;20456;-53
2022/08/22 08:38:36;;;;;;;3.20;2.90;;;;;;;23.97;45.12;101807.22;5012818;28;20412;-54
2022/08/22 08:41:28;;;;;;;3.70;3.40;;;;;;;23.90;45.48;101803.88;5012436;28;20479;-48
2022/08/22 08:44:05;;;;;;;6.93;3.47;;;;;;;23.89;43.14;101812.31;5012921;28;20417;-53
2022/08/22 08:46:58;;;;;;;4.50;3.10;;;;;;;23.56;44.29;101808.75;5012460;28;20460;-51
2022/08/22 08:49:43;;;;;;;7.10;4.10;;;;;;;23.72;43.46;101808.84;5012299;28;20464;-53
2022/08/22 08:52:39;;;;;;;3.70;3.37;;;;;;;23.77;44.61;101812.47;5012495;28;20425;-56
2022/08/22 08:55:20;;;;;;;5.40;3.60;;;;;;;23.83;45.72;101811.44;5012291;28;20440;-54
2022/08/22 08:58:33;;;;;;;5.03;3.40;;;;;;;23.59;47.00;101802.78;5012925;28;20439;-54
2022/08/22 09:01:15;;;;;;;4.17;3.77;;;;;;;23.82;47.32;101798.06;5012094;28;20530;-56
2022/08/22 09:04:15;;;;;;;8.03;3.83;;;;;;;23.38;47.99;101808.22;5012489;28;20420;-50
2022/08/22 09:07:15;;;;;;;4.23;3.87;;;;;;;23.43;48.25;101803.69;5012519;28;20452;-53
2022/08/22 09:09:57;;;;;;;4.23;3.30;;;;;;;23.73;48.37;101805.06;4991301;28;20460;-54
2022/08/22 09:12:47;;;;;;;3.80;3.50;;;;;;;23.49;49.06;101805.38;5012225;28;20417;-54
2022/08/22 09:15:49;;;;;;;4.00;3.60;;;;;;;23.79;48.88;101806.75;5012041;28;20455;-54
2022/08/22 09:18:59;;;;;;;4.90;3.63;;;;;;;23.39;49.77;101808.00;5011950;28;20457;-53
2022/08/22 09:21:59;;;;;;;4.60;3.77;;;;;;;23.90;48.58;101803.88;5011699;28;20468;-56
2022/08/22 09:25:02;;;;;;;3.60;3.13;;;;;;;23.94;48.38;101793.28;5011830;28;20945;-51
2022/08/22 09:27:37;;;;;;;4.40;4.00;;;;;;;23.68;48.98;101812.09;5012009;28;20452;-48
2022/08/22 09:30:10;;;;;;;3.43;3.23;;;;;;;23.45;49.71;101809.69;5011480;28;20534;-52
2022/08/22 09:32:53;;;;;;;4.53;4.10;;;;;;;23.26;49.31;101800.22;5011724;28;20830;-55
2022/08/22 09:35:33;;;;;;;4.33;3.90;;;;;;;23.21;50.54;101797.41;5011609;28;20954;-54
2022/08/22 09:38:25;;;;;;;4.47;4.07;;;;;;;23.39;50.99;101796.28;5012050;28;20423;-51
2022/08/22 09:41:03;;;;;;;6.20;3.77;;;;;;;23.70;49.74;101790.06;5011266;28;20480;-56
2022/08/22 09:43:38;;;;;;;3.83;3.63;;;;;;;23.90;49.27;101786.69;5011560;28;21021;-56
2022/08/22 09:46:18;;;;;;;4.47;3.83;;;;;;;23.86;49.71;101788.31;5011875;28;20467;-53
2022/08/22 09:49:00;;;;;;;4.53;3.70;;;;;;;23.51;51.31;101788.78;5011550;28;20420;-56
2022/08/22 09:51:37;;;;;;;4.40;4.00;;;;;;;23.59;51.89;101793.78;5011746;28;20786;-55
2022/08/22 09:54:20;;;;;;;4.60;4.20;;;;;;;23.67;52.41;101788.69;5011746;28;20428;-55
2022/08/22 09:56:57;;;;;;;6.67;3.40;;;;;;;23.41;52.26;101800.41;5011710;28;20962;-56
2022/08/22 09:59:41;;;;;;;5.83;3.40;;;;;;;23.25;51.94;101800.44;5011373;28;20901;-56
2022/08/22 10:02:28;;;;;;;4.00;3.60;;;;;;;23.23;52.88;101791.72;5011726;28;20846;-54
2022/08/22 10:05:02;;;;;;;6.33;3.63;;;;;;;23.23;53.11;101792.56;5011588;28;20440;-53
2022/08/22 10:07:47;;;;;;;4.43;4.10;;;;;;;23.25;53.63;101787.66;5011798;28;20860;-56
2022/08/22 10:10:34;;;;;;;4.37;3.80;;;;;;;23.31;54.57;101786.66;5011421;28;20465;-56
2022/08/22 10:13:10;;;;;;;4.40;3.33;;;;;;;23.38;53.68;101789.19;5011829;28;20440;-55
2022/08/22 10:15:49;;;;;;;7.00;4.03;;;;;;;23.32;53.27;101787.47;5012116;28;20802;-55
2022/08/22 10:18:32;;;;;;;4.07;3.60;;;;;;;23.51;52.94;101784.16;5012854;28;20424;-55
2022/08/22 10:21:10;;;;;;;4.03;3.57;;;;;;;23.32;54.33;101782.03;5014999;28;20527;-51
2022/08/22 10:23:45;;;;;;;5.60;3.70;;;;;;;23.42;53.09;101785.69;5015394;28;20448;-56
2022/08/22 10:26:28;;;;;;;6.97;4.20;;;;;;;23.21;54.26;101772.91;5015149;28;20451;-55
2022/08/22 10:29:07;;;;;;;11.33;4.07;;;;;;;23.24;54.69;101777.84;5014557;28;20433;-53
2022/08/22 10:31:44;;;;;;;4.23;3.63;;;;;;;23.55;53.30;101770.88;5014959;28;20428;-55
2022/08/22 10:34:30;;;;;;;4.40;4.00;;;;;;;23.91;51.43;101763.81;5014939;28;20440;-55
2022/08/22 10:37:10;;;;;;;4.03;3.63;;;;;;;24.06;48.38;101767.50;5014889;28;20452;-52
2022/08/22 10:39:45;;;;;;;4.43;3.43;;;;;;;24.91;49.44;101768.31;5014376;28;20464;-52
2022/08/22 10:42:25;;;;;;;4.60;3.53;;;;;;;25.14;47.42;101759.66;5014650;28;20472;-53
2022/08/22 10:45:14;;;;;;;3.50;3.30;;;;;;;24.96;48.53;101763.69;5014857;28;20436;-52
2022/08/22 10:48:30;;;;;;;4.00;3.40;;;;;;;25.17;47.36;101761.84;5014682;28;20479;-52
2022/08/22 10:51:35;;;;;;;4.23;3.57;;;;;;;25.24;45.62;101765.13;5014164;28;21008;-50
2022/08/22 10:54:25;;;;;;;3.90;3.50;;;;;;;25.03;45.96;101766.97;5014255;28;20937;-53
2022/08/22 10:57:08;;;;;;;4.10;3.80;;;;;;;24.82;47.09;101761.72;5014644;28;20448;-54
2022/08/22 10:59:44;;;;;;;6.13;3.80;;;;;;;24.83;46.91;101764.19;5014007;28;21024;-50
2022/08/22 11:02:33;;;;;;;3.67;3.40;;;;;;;24.92;45.68;101756.31;5014483;28;20508;-52
2022/08/22 11:05:23;;;;;;;4.10;3.70;;;;;;;24.88;46.66;101757.94;5014722;28;20442;-52
2022/08/22 11:08:16;;;;;;;3.50;3.20;;;;;;;24.99;46.89;101754.97;5014380;28;20512;-53
2022/08/22 11:11:01;;;;;;;4.40;3.80;;;;;;;25.56;45.21;101754.88;5014152;28;20800;-49
2022/08/22 11:13:39;;;;;;;4.20;3.80;;;;;;;25.48;45.86;101754.53;5013945;28;20914;-53
2022/08/22 11:16:22;;;;;;;5.03;3.50;;;;;;;25.38;46.22;101755.34;5014217;28;20506;-54
2022/08/22 11:19:14;;;;;;;6.30;4.37;;;;;;;25.20;43.81;101753.94;5013581;28;20958;-55
2022/08/22 11:22:00;;;;;;;4.17;3.67;;;;;;;25.85;45.22;101749.66;5013874;28;20508;-54
2022/08/22 11:25:08;;;;;;;3.83;3.53;;;;;;;26.40;43.10;101751.53;5014162;28;20440;-47
2022/08/22 11:27:53;;;;;;;3.60;3.40;;;;;;;26.37;42.85;101750.16;5013225;28;21032;-54
2022/08/22 11:30:30;;;;;;;3.60;3.20;;;;;;;26.65;43.36;101754.19;5012303;28;21016;-51
2022/08/22 11:33:16;;;;;;;4.03;3.47;;;;;;;26.99;42.61;101753.53;5013725;28;20840;-52
2022/08/22 11:35:54;;;;;;;4.27;3.87;;;;;;;26.83;42.02;101745.38;5013821;28;20894;-54
2022/08/22 11:38:28;;;;;;;8.90;4.00;;;;;;;26.85;41.17;101743.19;5013976;28;20425;-50
2022/08/22 11:41:04;;;;;;;3.67;3.37;;;;;;;26.12;44.50;101752.09;5013282;28;20464;-49
2022/08/22 11:43:45;;;;;;;4.63;4.20;;;;;;;26.27;41.78;101755.66;5013313;28;20985;-53
2022/08/22 11:46:18;;;;;;;4.47;3.93;;;;;;;26.30;43.46;101751.56;5013362;28;20893;-54
2022/08/22 11:49:05;;;;;;;3.47;3.27;;;;;;;26.77;42.61;101751.97;5013383;28;20444;-51
2022/08/22 11:52:03;;;;;;;7.83;4.33;;;;;;;26.64;41.45;101751.75;5013564;28;20429;-50
2022/08/22 11:54:50;;;;;;;5.00;4.00;;;;;;;26.80;43.09;101756.91;5003641;28;20441;-54
2022/08/22 11:57:29;;;;;;;4.30;3.90;;;;;;;26.32;42.41;101754.81;4997069;28;20457;-50
2022/08/22 12:00:13;;;;;;;4.73;3.40;;;;;;;26.46;42.52;101750.44;5013021;28;20547;-51
2022/08/22 12:02:57;;;;;;;3.60;3.33;;;;;;;26.60;43.23;101748.75;5013050;28;20477;-52
2022/08/22 12:05:32;;;;;;;3.80;3.30;;;;;;;26.59;43.01;101749.00;5013379;28;20429;-52
2022/08/22 12:08:07;;;;;;;3.73;3.43;;;;;;;27.14;43.19;101753.44;5013334;28;20786;-49
2022/08/22 12:10:43;;;;;;;5.43;4.20;;;;;;;27.51;43.02;101758.47;5012736;28;20846;-50
2022/08/22 12:13:19;;;;;;;8.33;3.87;;;;;;;27.49;43.25;101753.25;5012659;28;20482;-52
2022/08/22 12:16:14;;;;;;;5.33;3.80;;;;;;;27.77;41.60;101754.41;5013321;28;20464;-54
2022/08/22 12:18:49;;;;;;;11.53;4.23;;;;;;;27.55;41.84;101754.03;5012686;28;20427;-51
2022/08/22 12:22:03;;;;;;;6.40;4.57;;;;;;;27.53;41.64;101757.06;5013050;28;20432;-55
2022/08/22 12:24:45;;;;;;;4.70;4.30;;;;;;;27.42;42.93;101752.75;5012847;28;20440;-48
2022/08/22 12:27:23;;;;;;;5.27;3.77;;;;;;;27.48;42.89;101744.22;5012797;28;20459;-53